Time;durP1;ratioP1;P1;durP2;ratioP2;P2;SDS_P1;SDS_P2;PMS_P1;PMS_P2;Temp;Humidity;BMP_temperature;BMP_pressure;BME280_temperature;BME280_humidity;BME280_pressure;Samples;Min_cycle;Max_cycle;Signal;HPM_P1;HPM_P2
2022/01/01 00:02:16;;;;;;;11.20;6.47;;;;;;;;;;5048871;28;20032;-69
2022/01/01 00:04:42;;;;;;;14.55;6.38;;;;;;;;;;5046637;28;20033;-74
2022/01/01 00:07:12;;;;;;;10.25;6.05;;;;;;;;;;5057547;28;20041;-69
2022/01/01 00:09:38;;;;;;;9.95;6.68;;;;;;;;;;5043098;28;20036;-69
2022/01/01 00:12:05;;;;;;;12.30;7.15;;;;;;;;;;5044911;28;20024;-69
2022/01/01 00:14:31;;;;;;;9.93;6.72;;;;;;;;;;5049038;28;20029;-69
2022/01/01 00:16:58;;;;;;;9.88;7.38;;;;;;;;;;5032724;28;20025;-69
2022/01/01 00:19:24;;;;;;;11.18;7.95;;;;;;;;;;5051463;28;20070;-75
2022/01/01 00:21:50;;;;;;;12.57;8.23;;;;;;;;;;5041617;28;20491;-69
2022/01/01 00:24:16;;;;;;;12.30;7.22;;;;;;;;;;5050270;28;20104;-70
2022/01/01 00:26:42;;;;;;;10.35;7.30;;;;;;;;;;5052507;28;20036;-69
2022/01/01 00:29:09;;;;;;;12.93;7.45;;;;;;;;;;5057621;28;20070;-69
2022/01/01 00:31:35;;;;;;;13.50;7.70;;;;;;;;;;5051061;28;20646;-69
2022/01/01 00:34:01;;;;;;;10.32;8.02;;;;;;;;;;5049187;28;20116;-69
2022/01/01 00:36:28;;;;;;;12.35;7.40;;;;;;;;;;5051964;28;20021;-68
2022/01/01 00:38:54;;;;;;;12.00;7.07;;;;;;;;;;5050927;28;20048;-68
2022/01/01 00:41:20;;;;;;;10.65;7.05;;;;;;;;;;5051612;28;20092;-68
2022/01/01 00:43:46;;;;;;;10.00;6.25;;;;;;;;;;5039729;28;20201;-69
2022/01/01 00:46:12;;;;;;;10.25;7.53;;;;;;;;;;5040342;28;20028;-68
2022/01/01 00:48:39;;;;;;;12.70;6.47;;;;;;;;;;5041104;28;20045;-68
2022/01/01 00:51:05;;;;;;;10.23;6.38;;;;;;;;;;5051289;28;20029;-68
2022/01/01 00:53:31;;;;;;;9.50;6.38;;;;;;;;;;5053525;28;20028;-68
2022/01/01 00:55:58;;;;;;;13.75;7.28;;;;;;;;;;5053360;28;20075;-68
2022/01/01 00:58:24;;;;;;;11.57;7.05;;;;;;;;;;5048816;28;20075;-69
2022/01/01 01:00:51;;;;;;;10.98;6.60;;;;;;;;;;5050983;28;20051;-67
2022/01/01 01:03:17;;;;;;;15.27;7.95;;;;;;;;;;5053306;28;20024;-68
2022/01/01 01:05:45;;;;;;;12.23;7.30;;;;;;;;;;5055213;28;20032;-68
2022/01/01 01:08:12;;;;;;;13.25;8.63;;;;;;;;;;5050988;28;20047;-68
2022/01/01 01:10:38;;;;;;;19.45;8.93;;;;;;;;;;5049360;28;20044;-68
2022/01/01 01:13:05;;;;;;;14.88;9.15;;;;;;;;;;5048646;28;20033;-68
2022/01/01 01:15:32;;;;;;;14.90;9.27;;;;;;;;;;5048303;28;20031;-68
2022/01/01 01:17:59;;;;;;;18.20;10.30;;;;;;;;;;5044149;28;20029;-68
2022/01/01 01:20:26;;;;;;;16.75;10.75;;;;;;;;;;5036519;28;20044;-68
2022/01/01 01:22:52;;;;;;;19.20;10.32;;;;;;;;;;5035975;28;20064;-68
2022/01/01 01:25:20;;;;;;;18.30;10.15;;;;;;;;;;5052084;28;20027;-67
2022/01/01 01:27:48;;;;;;;16.73;11.05;;;;;;;;;;5043627;28;20033;-68
2022/01/01 01:30:16;;;;;;;20.52;12.15;;;;;;;;;;5051279;28;20035;-68
2022/01/01 01:32:42;;;;;;;22.27;11.68;;;;;;;;;;5041818;28;20025;-68
2022/01/01 01:35:08;;;;;;;18.55;11.52;;;;;;;;;;5039965;28;20041;-68
2022/01/01 01:37:35;;;;;;;17.92;12.02;;;;;;;;;;5051204;28;20021;-69
2022/01/01 01:40:01;;;;;;;21.90;12.60;;;;;;;;;;5050184;28;20028;-68
2022/01/01 01:42:29;;;;;;;21.13;12.73;;;;;;;;;;5053920;28;20119;-68
2022/01/01 01:44:56;;;;;;;18.45;11.68;;;;;;;;;;5050074;28;20028;-68
2022/01/01 01:47:30;;;;;;;18.55;11.95;;;;;;;;;;5051694;28;20047;-67
2022/01/01 01:49:58;;;;;;;25.33;12.23;;;;;;;;;;5047408;28;20782;-67
2022/01/01 01:52:25;;;;;;;21.08;13.38;;;;;;;;;;5050073;28;20021;-67
2022/01/01 01:54:51;;;;;;;19.15;12.57;;;;;;;;;;5050942;28;20040;-68
2022/01/01 01:57:18;;;;;;;19.50;11.63;;;;;;;;;;5052240;28;20530;-67
2022/01/01 01:59:45;;;;;;;23.30;11.15;;;;;;;;;;5050610;28;20029;-70
2022/01/01 02:02:11;;;;;;;21.00;10.50;;;;;;;;;;5050562;28;20029;-68
2022/01/01 02:04:37;;;;;;;20.90;10.60;;;;;;;;;;5041177;28;20029;-68
2022/01/01 02:07:06;;;;;;;19.25;11.30;;;;;;;;;;5052180;28;20032;-68
2022/01/01 02:09:33;;;;;;;18.30;11.18;;;;;;;;;;5051403;28;20029;-67
2022/01/01 02:11:59;;;;;;;18.95;11.25;;;;;;;;;;5032579;28;20040;-67
2022/01/01 02:14:38;;;;;;;20.13;11.52;;;;;;;;;;5047198;28;20044;-67
2022/01/01 02:19:30;;;;;;;21.20;10.85;;;;;;;;;;5056550;28;20032;-68
2022/01/01 02:22:00;;;;;;;19.85;10.27;;;;;;;;;;5041440;28;20532;-68
2022/01/01 02:24:27;;;;;;;18.10;10.50;;;;;;;;;;5047351;28;20033;-68
2022/01/01 02:26:53;;;;;;;18.65;10.45;;;;;;;;;;5053381;28;20024;-67
2022/01/01 02:29:20;;;;;;;17.85;9.77;;;;;;;;;;5035886;28;20036;-67
2022/01/01 02:31:46;;;;;;;15.30;9.65;;;;;;;;;;5036304;28;20869;-67
2022/01/01 02:34:12;;;;;;;17.95;9.68;;;;;;;;;;5052302;28;20044;-67
2022/01/01 02:36:40;;;;;;;17.63;10.57;;;;;;;;;;5054666;28;20123;-67
2022/01/01 02:39:14;;;;;;;17.65;9.10;;;;;;;;;;5046865;28;20040;-67
2022/01/01 02:41:41;;;;;;;18.85;10.35;;;;;;;;;;5053847;28;20025;-67
2022/01/01 02:44:07;;;;;;;17.35;9.95;;;;;;;;;;5018325;28;20946;-69
2022/01/01 02:46:34;;;;;;;16.02;9.73;;;;;;;;;;5041334;28;20793;-67
2022/01/01 02:49:00;;;;;;;15.77;10.02;;;;;;;;;;5051080;28;20162;-67
2022/01/01 02:51:27;;;;;;;15.90;9.20;;;;;;;;;;5038176;28;20031;-67
2022/01/01 02:53:53;;;;;;;19.67;10.10;;;;;;;;;;5037659;28;20048;-67
2022/01/01 02:56:20;;;;;;;17.95;9.23;;;;;;;;;;5049029;28;20039;-67
2022/01/01 02:58:46;;;;;;;14.38;9.75;;;;;;;;;;5029595;28;20363;-67
2022/01/01 03:01:12;;;;;;;18.05;10.05;;;;;;;;;;5042859;28;20488;-69
2022/01/01 03:03:38;;;;;;;17.45;10.55;;;;;;;;;;5044759;28;20029;-67
2022/01/01 03:06:05;;;;;;;17.25;11.10;;;;;;;;;;5046484;28;20029;-67
2022/01/01 03:08:31;;;;;;;19.10;12.00;;;;;;;;;;5028429;28;20040;-67
2022/01/01 03:10:57;;;;;;;17.77;11.52;;;;;;;;;;5047834;28;20209;-67
2022/01/01 03:13:23;;;;;;;20.20;11.55;;;;;;;;;;5037533;28;20041;-67
2022/01/01 03:15:49;;;;;;;20.55;12.27;;;;;;;;;;5044032;28;20025;-67
2022/01/01 03:18:16;;;;;;;17.90;11.38;;;;;;;;;;5035087;28;20237;-67
2022/01/01 03:20:42;;;;;;;25.63;11.65;;;;;;;;;;5040117;28;20137;-72
2022/01/01 03:23:08;;;;;;;18.00;11.35;;;;;;;;;;5044799;28;20029;-68
2022/01/01 03:25:34;;;;;;;19.92;10.98;;;;;;;;;;5035277;28;20017;-67
2022/01/01 03:28:00;;;;;;;18.85;10.65;;;;;;;;;;5040459;28;20041;-67
2022/01/01 03:30:27;;;;;;;16.98;11.50;;;;;;;;;;5045024;28;20480;-68
2022/01/01 03:32:53;;;;;;;21.60;12.00;;;;;;;;;;5038767;28;20029;-67
2022/01/01 03:35:19;;;;;;;20.17;10.88;;;;;;;;;;5029673;28;20030;-67
2022/01/01 03:37:45;;;;;;;21.63;12.23;;;;;;;;;;5049944;28;20029;-67
2022/01/01 03:40:12;;;;;;;18.85;12.10;;;;;;;;;;5052791;28;20032;-67
2022/01/01 03:42:38;;;;;;;36.30;22.35;;;;;;;;;;5052709;28;20074;-70
2022/01/01 03:45:06;;;;;;;25.80;14.18;;;;;;;;;;5050770;28;20029;-67
2022/01/01 03:47:33;;;;;;;20.92;11.55;;;;;;;;;;5053189;28;20274;-67
2022/01/01 03:49:59;;;;;;;17.55;10.80;;;;;;;;;;5055956;28;20379;-67
2022/01/01 03:52:25;;;;;;;19.63;11.52;;;;;;;;;;5050223;28;20392;-67
2022/01/01 03:54:51;;;;;;;18.05;12.02;;;;;;;;;;5042257;28;20044;-67
2022/01/01 03:57:20;;;;;;;18.45;10.32;;;;;;;;;;5054356;28;20051;-67
2022/01/01 03:59:47;;;;;;;19.25;12.82;;;;;;;;;;5055729;28;20029;-67
2022/01/01 04:02:14;;;;;;;23.83;13.32;;;;;;;;;;5036717;28;20592;-67
2022/01/01 04:04:40;;;;;;;18.98;12.82;;;;;;;;;;5048134;28;20131;-67
2022/01/01 04:07:08;;;;;;;21.73;13.10;;;;;;;;;;5049261;28;20029;-67
2022/01/01 04:09:35;;;;;;;21.05;12.50;;;;;;;;;;5042582;28;20040;-67
2022/01/01 04:12:01;;;;;;;19.42;11.23;;;;;;;;;;5051491;28;20033;-67
2022/01/01 04:14:27;;;;;;;20.70;11.60;;;;;;;;;;5055161;28;20028;-68
2022/01/01 04:16:54;;;;;;;17.27;11.32;;;;;;;;;;5049332;28;20036;-67
2022/01/01 04:19:31;;;;;;;16.50;10.70;;;;;;;;;;5053735;28;20048;-67
2022/01/01 04:21:57;;;;;;;18.85;11.55;;;;;;;;;;5044877;28;20052;-69
2022/01/01 04:24:24;;;;;;;19.30;10.88;;;;;;;;;;5051795;28;20020;-67
2022/01/01 04:26:50;;;;;;;17.27;10.43;;;;;;;;;;5046942;28;20477;-67
2022/01/01 04:29:16;;;;;;;20.02;11.75;;;;;;;;;;5045600;28;20499;-67
2022/01/01 04:31:42;;;;;;;20.63;11.70;;;;;;;;;;5055651;28;20028;-68
2022/01/01 04:34:09;;;;;;;18.50;12.38;;;;;;;;;;5043288;28;20036;-68
2022/01/01 04:36:46;;;;;;;19.75;12.35;;;;;;;;;;5040456;28;20025;-67
2022/01/01 04:39:12;;;;;;;29.73;18.40;;;;;;;;;;5051498;28;20100;-67
2022/01/01 04:41:38;;;;;;;30.65;17.88;;;;;;;;;;5047452;28;20098;-67
2022/01/01 04:44:04;;;;;;;27.45;16.38;;;;;;;;;;5041523;28;20064;-67
2022/01/01 04:46:30;;;;;;;21.95;13.85;;;;;;;;;;5043608;28;20033;-67
2022/01/01 04:48:57;;;;;;;23.17;14.88;;;;;;;;;;5039279;28;20120;-67
2022/01/01 04:51:23;;;;;;;31.63;17.45;;;;;;;;;;5047530;28;20028;-67
2022/01/01 04:53:49;;;;;;;24.85;14.18;;;;;;;;;;5047294;28;20034;-67
2022/01/01 04:56:19;;;;;;;23.08;14.27;;;;;;;;;;5035423;28;20299;-67
2022/01/01 04:58:46;;;;;;;21.20;13.98;;;;;;;;;;5051570;28;20028;-67
2022/01/01 05:01:13;;;;;;;36.92;23.75;;;;;;;;;;5047444;28;20064;-67
2022/01/01 05:03:40;;;;;;;23.30;15.77;;;;;;;;;;5052707;28;20103;-67
2022/01/01 05:06:06;;;;;;;26.23;15.80;;;;;;;;;;5026349;28;20171;-67
2022/01/01 05:08:32;;;;;;;23.75;15.50;;;;;;;;;;5047035;28;20037;-67
2022/01/01 05:10:58;;;;;;;28.63;16.33;;;;;;;;;;5040151;28;20034;-70
2022/01/01 05:13:25;;;;;;;23.90;14.07;;;;;;;;;;5048359;28;20083;-67
2022/01/01 05:15:51;;;;;;;20.83;13.32;;;;;;;;;;5051491;28;20032;-67
2022/01/01 05:18:18;;;;;;;22.73;14.18;;;;;;;;;;5048619;28;20130;-67
2022/01/01 05:20:44;;;;;;;23.75;13.35;;;;;;;;;;5053440;28;20623;-67
2022/01/01 05:23:10;;;;;;;23.35;13.57;;;;;;;;;;5037710;28;20768;-69
2022/01/01 05:25:36;;;;;;;20.42;14.10;;;;;;;;;;5048611;28;20031;-67
2022/01/01 05:28:02;;;;;;;19.40;13.00;;;;;;;;;;5052347;28;20544;-67
2022/01/01 05:30:29;;;;;;;19.50;12.40;;;;;;;;;;5049567;28;20082;-66
2022/01/01 05:32:55;;;;;;;18.60;12.88;;;;;;;;;;5044488;28;20025;-67
2022/01/01 05:35:21;;;;;;;21.65;13.10;;;;;;;;;;5045402;28;20025;-67
2022/01/01 05:37:47;;;;;;;20.75;12.25;;;;;;;;;;5045409;28;20199;-67
2022/01/01 05:40:13;;;;;;;22.23;11.25;;;;;;;;;;5051036;28;20288;-67
2022/01/01 05:42:39;;;;;;;21.90;12.95;;;;;;;;;;5038190;28;20025;-67
2022/01/01 05:45:06;;;;;;;22.70;12.98;;;;;;;;;;5044220;28;20059;-67
2022/01/01 05:47:32;;;;;;;21.60;13.10;;;;;;;;;;5047696;28;20033;-67
2022/01/01 05:49:58;;;;;;;22.45;13.30;;;;;;;;;;5031884;28;20074;-68
2022/01/01 05:52:25;;;;;;;18.83;11.82;;;;;;;;;;5048629;28;20225;-67
2022/01/01 05:54:51;;;;;;;20.98;13.15;;;;;;;;;;5048836;28;20608;-67
2022/01/01 05:57:17;;;;;;;26.02;14.05;;;;;;;;;;5043367;28;20032;-67
2022/01/01 05:59:43;;;;;;;25.25;15.18;;;;;;;;;;5050552;28;20032;-68
2022/01/01 06:02:10;;;;;;;23.42;13.57;;;;;;;;;;5044896;28;20020;-67
2022/01/01 06:04:36;;;;;;;17.25;10.73;;;;;;;;;;5040092;28;20040;-67
2022/01/01 06:07:02;;;;;;;14.77;9.63;;;;;;;;;;5044474;28;20493;-69
2022/01/01 06:09:28;;;;;;;14.52;9.52;;;;;;;;;;5050006;28;20035;-67
2022/01/01 06:11:55;;;;;;;14.18;8.43;;;;;;;;;;5050961;28;20047;-67
2022/01/01 06:14:21;;;;;;;12.65;7.30;;;;;;;;;;5041444;28;20017;-67
2022/01/01 06:16:47;;;;;;;7.15;5.10;;;;;;;;;;5050763;28;20048;-68
2022/01/01 06:19:13;;;;;;;11.27;5.82;;;;;;;;;;5051460;28;20021;-68
2022/01/01 06:21:40;;;;;;;13.10;6.40;;;;;;;;;;5030312;28;20447;-67
2022/01/01 06:24:06;;;;;;;15.82;6.80;;;;;;;;;;5039519;28;20032;-68
2022/01/01 06:26:32;;;;;;;9.60;5.70;;;;;;;;;;5040294;28;20086;-73
2022/01/01 06:28:58;;;;;;;12.50;8.65;;;;;;;;;;5031127;28;20397;-67
2022/01/01 06:31:25;;;;;;;16.40;9.55;;;;;;;;;;5039929;28;20512;-68
2022/01/01 06:33:51;;;;;;;16.52;9.95;;;;;;;;;;5047897;28;20112;-67
2022/01/01 06:36:17;;;;;;;15.93;9.65;;;;;;;;;;5051148;28;20408;-67
2022/01/01 06:38:44;;;;;;;17.40;8.85;;;;;;;;;;5040139;28;20020;-67
2022/01/01 06:41:11;;;;;;;13.90;7.70;;;;;;;;;;5043520;28;20571;-67
2022/01/01 06:43:38;;;;;;;11.23;7.20;;;;;;;;;;5047513;28;20056;-68
2022/01/01 06:46:04;;;;;;;13.55;6.80;;;;;;;;;;5047780;28;20105;-70
2022/01/01 06:48:30;;;;;;;11.63;6.82;;;;;;;;;;5047597;28;20033;-71
2022/01/01 06:50:57;;;;;;;11.60;6.95;;;;;;;;;;5048539;28;20033;-69
2022/01/01 06:53:23;;;;;;;14.23;6.93;;;;;;;;;;5044701;28;20477;-70
2022/01/01 06:55:49;;;;;;;11.30;7.28;;;;;;;;;;5049532;28;20059;-70
2022/01/01 06:58:15;;;;;;;13.75;7.53;;;;;;;;;;5027356;28;20028;-69
2022/01/01 07:00:43;;;;;;;12.02;7.32;;;;;;;;;;5039327;28;20584;-75
2022/01/01 07:03:09;;;;;;;13.20;7.90;;;;;;;;;;5043211;28;20033;-69
2022/01/01 07:05:35;;;;;;;15.07;9.40;;;;;;;;;;5033364;28;20019;-69
2022/01/01 07:08:01;;;;;;;13.20;8.05;;;;;;;;;;5045104;28;20052;-71
2022/01/01 07:10:28;;;;;;;17.77;9.90;;;;;;;;;;5049231;28;20086;-71
2022/01/01 07:12:54;;;;;;;14.82;9.13;;;;;;;;;;5041539;28;20025;-69
2022/01/01 07:15:20;;;;;;;16.92;9.50;;;;;;;;;;5041178;28;20032;-73
2022/01/01 07:17:46;;;;;;;14.38;8.82;;;;;;;;;;5050535;28;20468;-71
2022/01/01 07:20:12;;;;;;;15.88;9.30;;;;;;;;;;5052275;28;20492;-72
2022/01/01 07:22:43;;;;;;;18.40;10.00;;;;;;;;;;5023707;28;20045;-70
2022/01/01 07:25:10;;;;;;;20.17;10.63;;;;;;;;;;5047548;28;20584;-70
2022/01/01 07:27:37;;;;;;;14.13;8.05;;;;;;;;;;5048304;28;20037;-71
2022/01/01 07:30:04;;;;;;;9.75;5.55;;;;;;;;;;5049080;28;20447;-70
2022/01/01 07:32:30;;;;;;;9.88;5.38;;;;;;;;;;5050401;28;20033;-70
2022/01/01 07:34:56;;;;;;;8.68;4.28;;;;;;;;;;5046988;28;20036;-70
2022/01/01 07:37:22;;;;;;;7.47;3.50;;;;;;;;;;5039330;28;20058;-70
2022/01/01 07:39:48;;;;;;;9.07;4.00;;;;;;;;;;5049629;28;20124;-71
2022/01/01 07:42:15;;;;;;;11.45;4.95;;;;;;;;;;5050612;28;20081;-70
2022/01/01 07:44:42;;;;;;;11.05;4.70;;;;;;;;;;5040878;28;20028;-70
2022/01/01 07:47:08;;;;;;;8.75;4.03;;;;;;;;;;5060062;28;20033;-70
2022/01/01 07:49:34;;;;;;;7.32;3.60;;;;;;;;;;5061664;28;20500;-70
2022/01/01 07:52:01;;;;;;;7.65;3.50;;;;;;;;;;5062409;28;20104;-70
2022/01/01 07:54:27;;;;;;;9.45;3.50;;;;;;;;;;5038943;28;20033;-70
2022/01/01 07:56:53;;;;;;;7.70;3.25;;;;;;;;;;5020626;28;20029;-70
2022/01/01 07:59:19;;;;;;;10.77;3.40;;;;;;;;;;5025938;28;20074;-70
2022/01/01 08:01:45;;;;;;;7.15;3.15;;;;;;;;;;5039786;28;20112;-70
2022/01/01 08:04:11;;;;;;;8.52;3.33;;;;;;;;;;5038966;28;20021;-70
2022/01/01 08:06:37;;;;;;;4.85;3.00;;;;;;;;;;5036607;28;20037;-69
2022/01/01 08:09:04;;;;;;;11.80;3.83;;;;;;;;;;5021234;28;20855;-70
2022/01/01 08:11:30;;;;;;;9.02;3.83;;;;;;;;;;5036613;28;20440;-69
2022/01/01 08:13:56;;;;;;;7.60;3.35;;;;;;;;;;5022885;28;20032;-69
2022/01/01 08:16:22;;;;;;;10.43;3.75;;;;;;;;;;5030522;28;20035;-71
2022/01/01 08:18:49;;;;;;;8.27;3.70;;;;;;;;;;5017685;28;20025;-69
2022/01/01 08:21:15;;;;;;;6.47;3.45;;;;;;;;;;5020078;28;20045;-70
2022/01/01 08:23:41;;;;;;;7.57;3.60;;;;;;;;;;5032996;28;20033;-71
2022/01/01 08:26:07;;;;;;;4.75;3.33;;;;;;;;;;5023008;28;20032;-70
2022/01/01 08:28:33;;;;;;;7.28;3.88;;;;;;;;;;5042291;28;20568;-70
2022/01/01 08:31:00;;;;;;;7.60;3.40;;;;;;;;;;5022927;28;20051;-70
2022/01/01 08:33:26;;;;;;;8.15;3.53;;;;;;;;;;5021191;28;20025;-70
2022/01/01 08:35:52;;;;;;;9.60;4.32;;;;;;;;;;5022725;28;20090;-70
2022/01/01 08:38:18;;;;;;;8.80;4.03;;;;;;;;;;5022353;28;20043;-70
2022/01/01 08:40:44;;;;;;;9.48;5.65;;;;;;;;;;5022321;28;20025;-69
2022/01/01 08:43:10;;;;;;;11.13;5.45;;;;;;;;;;5021694;28;20055;-70
2022/01/01 08:45:38;;;;;;;16.42;6.22;;;;;;;;;;5021954;28;20041;-70
2022/01/01 08:48:06;;;;;;;12.63;6.57;;;;;;;;;;5022073;28;20041;-70
2022/01/01 08:50:32;;;;;;;11.13;6.28;;;;;;;;;;5022443;28;20043;-70
2022/01/01 08:52:58;;;;;;;12.65;6.95;;;;;;;;;;5019107;28;20647;-70
2022/01/01 08:55:25;;;;;;;13.73;8.32;;;;;;;;;;5021999;28;20432;-72
2022/01/01 08:57:51;;;;;;;16.65;9.20;;;;;;;;;;5021913;28;20053;-69
2022/01/01 09:00:18;;;;;;;15.50;9.60;;;;;;;;;;5022087;28;20029;-71
2022/01/01 09:02:44;;;;;;;19.08;10.20;;;;;;;;;;5028863;28;20497;-70
2022/01/01 09:05:11;;;;;;;17.27;10.15;;;;;;;;;;5040250;28;20112;-70
2022/01/01 09:07:37;;;;;;;13.75;9.88;;;;;;;;;;5038822;28;20102;-70
2022/01/01 09:10:04;;;;;;;15.15;8.55;;;;;;;;;;5024008;28;20029;-70
2022/01/01 09:12:30;;;;;;;17.73;9.15;;;;;;;;;;5020783;28;20032;-71
2022/01/01 09:14:57;;;;;;;15.02;8.85;;;;;;;;;;5020731;28;20636;-70
2022/01/01 09:17:24;;;;;;;15.88;8.30;;;;;;;;;;5019764;28;20120;-70
2022/01/01 09:19:50;;;;;;;11.70;7.70;;;;;;;;;;5031139;28;20021;-70
2022/01/01 09:22:16;;;;;;;13.88;8.30;;;;;;;;;;5037935;28;20080;-70
2022/01/01 09:24:42;;;;;;;11.25;8.57;;;;;;;;;;5029260;28;20079;-70
2022/01/01 09:27:09;;;;;;;19.48;11.23;;;;;;;;;;5003418;28;20029;-70
2022/01/01 09:29:35;;;;;;;16.77;11.48;;;;;;;;;;5027591;28;20039;-71
2022/01/01 09:32:02;;;;;;;18.27;10.68;;;;;;;;;;5034209;28;20025;-70
2022/01/01 09:34:28;;;;;;;15.80;11.27;;;;;;;;;;5029124;28;20036;-69
2022/01/01 09:36:54;;;;;;;17.02;9.43;;;;;;;;;;5035225;28;20067;-70
2022/01/01 09:39:21;;;;;;;17.23;9.73;;;;;;;;;;5034925;28;20741;-70
2022/01/01 09:41:48;;;;;;;16.67;10.05;;;;;;;;;;5060048;28;20033;-70
2022/01/01 09:44:17;;;;;;;16.30;9.48;;;;;;;;;;5059425;28;20085;-71
2022/01/01 09:46:45;;;;;;;15.15;9.82;;;;;;;;;;5059490;28;20028;-71
2022/01/01 09:49:15;;;;;;;10.55;7.80;;;;;;;;;;5047772;28;20090;-70
2022/01/01 09:51:42;;;;;;;9.70;4.45;;;;;;;;;;5038664;28;20032;-70
2022/01/01 09:54:08;;;;;;;9.10;2.97;;;;;;;;;;5035830;28;20036;-70
2022/01/01 09:56:35;;;;;;;7.57;2.78;;;;;;;;;;5031403;28;20025;-70
2022/01/01 09:59:01;;;;;;;5.20;2.25;;;;;;;;;;5025507;28;20053;-70
2022/01/01 10:01:28;;;;;;;10.10;2.92;;;;;;;;;;5023384;28;20063;-70
2022/01/01 10:03:56;;;;;;;6.03;2.80;;;;;;;;;;5027243;28;20033;-71
2022/01/01 10:06:23;;;;;;;7.82;2.97;;;;;;;;;;5035192;28;20132;-69
2022/01/01 10:08:55;;;;;;;7.13;2.67;;;;;;;;;;5037910;28;20044;-69
2022/01/01 10:11:21;;;;;;;;;;;;;;;;;;5039954;28;20036;-70
2022/01/01 10:13:48;;;;;;;6.90;2.90;;;;;;;;;;5024355;28;19913;-69
2022/01/01 10:16:15;;;;;;;5.30;2.45;;;;;;;;;;5032684;28;20024;-70
2022/01/01 10:18:42;;;;;;;5.72;2.97;;;;;;;;;;5031731;28;20025;-69
2022/01/01 10:21:12;;;;;;;4.65;2.40;;;;;;;;;;5027762;28;20049;-70
2022/01/01 10:23:40;;;;;;;9.40;3.22;;;;;;;;;;5030131;28;20035;-70
2022/01/01 10:29:08;;;;;;;5.13;2.20;;;;;;;;;;5032008;28;20072;-71
2022/01/01 10:31:34;;;;;;;;;;;;;;;;;;5026896;28;20454;-70
2022/01/01 10:34:00;;;;;;;5.03;2.38;;;;;;;;;;5034094;28;20031;-70
2022/01/01 10:36:29;;;;;;;8.32;2.85;;;;;;;;;;5040534;28;20079;-70
2022/01/01 10:39:06;;;;;;;7.40;2.72;;;;;;;;;;5039648;28;20033;-71
2022/01/01 10:41:43;;;;;;;6.53;2.80;;;;;;;;;;5028738;28;20028;-71
2022/01/01 10:44:09;;;;;;;5.95;2.63;;;;;;;;;;5024610;28;20112;-72
2022/01/01 10:46:38;;;;;;;7.78;2.80;;;;;;;;;;5018680;28;20056;-72
2022/01/01 10:49:30;;;;;;;9.63;3.38;;;;;;;;;;5030111;28;20032;-71
2022/01/01 10:52:12;;;;;;;7.05;2.58;;;;;;;;;;5042495;28;20028;-71
2022/01/01 10:54:38;;;;;;;9.10;2.88;;;;;;;;;;5021646;28;20041;-70
2022/01/01 10:57:08;;;;;;;6.07;2.60;;;;;;;;;;5022943;28;20022;-70
2022/01/01 10:59:38;;;;;;;6.90;2.78;;;;;;;;;;5022215;28;20917;-70
2022/01/01 11:02:07;;;;;;;9.52;3.17;;;;;;;;;;5041901;28;20025;-70
2022/01/01 11:04:37;;;;;;;5.82;2.88;;;;;;;;;;5022069;28;20087;-71
2022/01/01 11:07:03;;;;;;;7.18;3.00;;;;;;;;;;5033347;28;20588;-70
2022/01/01 11:09:31;;;;;;;10.15;3.17;;;;;;;;;;5036268;28;20033;-70
2022/01/01 11:12:02;;;;;;;10.00;2.97;;;;;;;;;;5039381;28;20204;-71
2022/01/01 11:14:30;;;;;;;6.20;2.72;;;;;;;;;;5034047;28;20239;-72
2022/01/01 11:16:56;;;;;;;8.55;2.65;;;;;;;;;;5033902;28;20592;-73
2022/01/01 11:19:24;;;;;;;9.15;2.75;;;;;;;;;;5042745;28;20027;-74
2022/01/01 11:21:52;;;;;;;8.93;2.78;;;;;;;;;;5054163;28;20045;-74
2022/01/01 11:24:18;;;;;;;14.65;5.72;;;;;;;;;;5035585;28;20380;-74
2022/01/01 11:26:45;;;;;;;8.50;4.22;;;;;;;;;;5030261;28;20026;-74
2022/01/01 11:29:13;;;;;;;8.55;4.35;;;;;;;;;;5033788;28;20037;-74
2022/01/01 11:31:40;;;;;;;13.25;5.25;;;;;;;;;;5046413;28;20025;-74
2022/01/01 11:34:07;;;;;;;16.13;5.70;;;;;;;;;;5036208;28;20032;-74
2022/01/01 11:36:34;;;;;;;13.48;9.18;;;;;;;;;;5017586;28;20057;-74
2022/01/01 11:39:04;;;;;;;14.63;10.98;;;;;;;;;;5019903;28;20041;-73
2022/01/01 11:41:40;;;;;;;9.75;5.38;;;;;;;;;;5010415;28;20033;-73
2022/01/01 11:44:25;;;;;;;9.80;5.40;;;;;;;;;;5030577;28;20029;-73
2022/01/01 11:46:59;;;;;;;8.52;4.03;;;;;;;;;;5029581;28;20033;-73
2022/01/01 11:49:26;;;;;;;10.73;3.90;;;;;;;;;;5031199;28;20029;-72
2022/01/01 11:51:53;;;;;;;7.40;3.13;;;;;;;;;;5024813;28;20619;-73
2022/01/01 11:54:36;;;;;;;9.45;3.97;;;;;;;;;;5026411;28;20045;-72
2022/01/01 11:57:02;;;;;;;8.80;3.92;;;;;;;;;;5042013;28;20167;-72
2022/01/01 11:59:37;;;;;;;7.88;3.80;;;;;;;;;;5042400;28;20472;-74
2022/01/01 12:02:13;;;;;;;8.35;4.18;;;;;;;;;;5026822;28;20029;-72
2022/01/01 12:04:41;;;;;;;9.65;4.03;;;;;;;;;;5036524;28;20413;-73
2022/01/01 12:07:13;;;;;;;30.15;19.08;;;;;;;;;;5040731;28;20029;-73
2022/01/01 12:09:58;;;;;;;9.52;4.35;;;;;;;;;;5056852;28;20553;-73
2022/01/01 12:12:36;;;;;;;8.10;2.50;;;;;;;;;;5042593;28;20090;-72
2022/01/01 12:15:03;;;;;;;11.88;4.20;;;;;;;;;;5042298;28;20031;-72
2022/01/01 12:17:39;;;;;;;10.00;4.30;;;;;;;;;;5042995;28;20025;-72
2022/01/01 12:20:14;;;;;;;6.30;2.30;;;;;;;;;;5041057;28;20029;-72
2022/01/01 12:22:40;;;;;;;8.85;3.70;;;;;;;;;;5029828;28;20519;-73
2022/01/01 12:25:08;;;;;;;4.90;2.58;;;;;;;;;;5023166;28;20033;-74
2022/01/01 12:27:45;;;;;;;12.30;6.72;;;;;;;;;;5026827;28;20136;-73
2022/01/01 12:30:12;;;;;;;9.75;6.40;;;;;;;;;;5025055;28;20025;-85
2022/01/01 12:32:44;;;;;;;9.23;4.13;;;;;;;;;;5043002;28;20033;-75
2022/01/01 12:35:15;;;;;;;12.13;3.42;;;;;;;;;;5041061;28;20030;-79
2022/01/01 12:37:41;;;;;;;7.38;3.67;;;;;;;;;;5042021;28;20032;-77
2022/01/01 12:40:09;;;;;;;9.32;3.45;;;;;;;;;;5048228;28;20109;-76
2022/01/01 12:42:35;;;;;;;9.00;2.75;;;;;;;;;;5059036;28;20097;-77
2022/01/01 12:45:06;;;;;;;9.52;2.83;;;;;;;;;;5024139;28;20029;-75
2022/01/01 12:47:32;;;;;;;7.68;3.20;;;;;;;;;;5047722;28;20044;-75
2022/01/01 12:50:00;;;;;;;8.32;3.25;;;;;;;;;;5038617;28;20131;-74
2022/01/01 12:52:27;;;;;;;8.82;4.05;;;;;;;;;;5035047;28;20029;-75
2022/01/01 12:54:54;;;;;;;6.38;3.75;;;;;;;;;;5035389;28;20075;-77
2022/01/01 12:57:21;;;;;;;8.05;4.50;;;;;;;;;;5020577;28;20051;-76
2022/01/01 12:59:50;;;;;;;7.80;3.92;;;;;;;;;;5028739;28;20055;-75
2022/01/01 13:02:16;;;;;;;9.85;4.00;;;;;;;;;;5034715;28;20052;-84
2022/01/01 13:04:43;;;;;;;11.02;4.03;;;;;;;;;;5034427;28;20025;-78
2022/01/01 13:07:10;;;;;;;6.13;3.72;;;;;;;;;;5031510;28;20045;-74
2022/01/01 13:09:36;;;;;;;10.18;4.43;;;;;;;;;;5029652;28;20037;-75
2022/01/01 13:12:04;;;;;;;11.68;6.78;;;;;;;;;;5031165;28;20025;-78
2022/01/01 13:14:32;;;;;;;13.73;9.25;;;;;;;;;;5030780;28;20063;-76
2022/01/01 13:16:59;;;;;;;14.18;8.98;;;;;;;;;;5024026;28;20061;-78
2022/01/01 13:19:25;;;;;;;12.60;9.98;;;;;;;;;;5035868;28;20059;-84
2022/01/01 13:21:52;;;;;;;14.23;10.07;;;;;;;;;;5028331;28;20076;-75
2022/01/01 13:24:18;;;;;;;10.98;6.40;;;;;;;;;;5029084;28;20026;-74
2022/01/01 13:26:45;;;;;;;8.57;5.28;;;;;;;;;;5023631;28;20059;-73
2022/01/01 13:29:11;;;;;;;12.18;8.00;;;;;;;;;;5031903;28;20124;-73
2022/01/01 13:31:37;;;;;;;10.82;7.32;;;;;;;;;;5037268;28;20024;-75
2022/01/01 13:34:05;;;;;;;11.13;6.80;;;;;;;;;;5030783;28;20025;-76
2022/01/01 13:36:35;;;;;;;15.95;8.20;;;;;;;;;;5024188;28;20097;-74
2022/01/01 13:39:04;;;;;;;9.20;5.25;;;;;;;;;;5032821;28;20509;-74
2022/01/01 13:41:40;;;;;;;8.82;4.45;;;;;;;;;;5024440;28;20064;-73
2022/01/01 13:44:21;;;;;;;11.82;6.53;;;;;;;;;;5034662;28;20040;-73
2022/01/01 13:46:48;;;;;;;11.73;5.03;;;;;;;;;;5023524;28;20033;-73
2022/01/01 13:49:14;;;;;;;13.88;6.82;;;;;;;;;;5024064;28;20032;-75
2022/01/01 13:51:41;;;;;;;12.50;7.03;;;;;;;;;;5022921;28;20029;-76
2022/01/01 13:54:09;;;;;;;14.80;7.85;;;;;;;;;;5023349;28;20029;-72
2022/01/01 13:56:37;;;;;;;13.98;7.50;;;;;;;;;;5021361;28;20029;-73
2022/01/01 13:59:04;;;;;;;11.57;7.85;;;;;;;;;;5024175;28;20033;-73
2022/01/01 14:01:33;;;;;;;16.67;12.25;;;;;;;;;;5029382;28;20591;-73
2022/01/01 14:03:59;;;;;;;11.63;7.20;;;;;;;;;;5025882;28;20109;-73
2022/01/01 14:06:26;;;;;;;9.73;5.05;;;;;;;;;;5029964;28;20504;-72
2022/01/01 14:09:02;;;;;;;11.90;5.03;;;;;;;;;;5032644;28;20072;-72
2022/01/01 14:11:32;;;;;;;19.45;12.40;;;;;;;;;;5026088;28;20879;-75
2022/01/01 14:14:05;;;;;;;16.30;11.20;;;;;;;;;;5032590;28;20127;-74
2022/01/01 14:16:32;;;;;;;15.48;8.23;;;;;;;;;;5026661;28;20100;-74
2022/01/01 14:19:00;;;;;;;9.68;4.60;;;;;;;;;;5024113;28;20099;-74
2022/01/01 14:21:27;;;;;;;20.55;12.02;;;;;;;;;;5027021;28;20041;-73
2022/01/01 14:23:56;;;;;;;16.35;10.68;;;;;;;;;;5018959;28;20029;-71
2022/01/01 14:26:35;;;;;;;13.80;9.27;;;;;;;;;;5019937;28;20393;-72
2022/01/01 14:29:01;;;;;;;8.82;4.10;;;;;;;;;;5023522;28;20044;-72
2022/01/01 14:31:28;;;;;;;10.82;5.22;;;;;;;;;;5023100;28;20020;-72
2022/01/01 14:33:54;;;;;;;6.38;3.67;;;;;;;;;;5020033;28;20031;-72
2022/01/01 14:36:20;;;;;;;12.57;7.88;;;;;;;;;;5019937;28;20078;-72